Nearby METAR Reports

 

KSJC - San Jose, California, USA
Distance from station: NE 14km
Updated: 13/07/2024 10:53
Mostly cloudy
Mostly cloudy
 Wind from NNW
Wind: NNW 13 km/h
Temperature: 23°C
Dew Point: 15°C
Humidity: 61%
Barometer: 1012.9 hPa
Clouds: Mostly cloudy
Visibility: 16 km
Cloud details: Few Clouds 427 m
Partly cloudy 1981 m
Mostly cloudy 4267 m
2024/07/13 17:53 KSJC 131753Z 34007KT 10SM FEW014 SCT065 BKN140 23/15 A2991 RMK AO2 RAB03E24 SLP129 P0000 60000 T02280150 10228 20183 51005
KNUQ - Moffett Nas/Mtn, California, USA
Distance from station: N 14km
Updated: 13/07/2024 11:35
Clear
Clear
 Wind from N
Wind: N 11 km/h
Temperature: 20°C
Dew Point: 15°C
Humidity: 73%
Barometer: 1013.2 hPa
Clouds: Clear
Visibility: 16 km
2024/07/13 18:35 KNUQ 131835Z AUTO 35006KT 10SM CLR 20/15 A2992 RMK AO2
 
KPAO - Palo Alto, California, USA
Distance from station: NNW 23km
Updated: 13/07/2024 10:47
Haze, Mostly cloudy
Haze, Mostly cloudy
 Wind from N
Wind: N 15 km/h
Temperature: 18°C
Dew Point: 15°C
Humidity: 83%
Barometer: 1013.5 hPa
Summary: Haze
Clouds: Mostly cloudy
Visibility: 13 km
Cloud details: Mostly cloudy 3048 m
2024/07/13 17:47 KPAO 131747Z 35008KT 8SM HZ BKN100 18/15 A2993
KRHV - San Jose/Reid, California, USA
Distance from station: ENE 19km
Updated: 13/07/2024 10:47
Partly cloudy
Partly cloudy
 Wind from calm
Wind: Calm
Temperature: 22°C
Dew Point: 12°C
Humidity: 53%
Barometer: 1013.2 hPa
Clouds: Partly cloudy
Visibility: 16 km
Cloud details: Partly cloudy 1829 m
2024/07/13 17:47 KRHV 131747Z 00000KT 10SM SCT060 22/12 A2992
 
KOAK - Oakland, California, USA
Distance from station: NNW 50km
Updated: 13/07/2024 10:53
Mostly cloudy
Mostly cloudy
 Wind from NW
Wind: NW 13 km/h
Temperature: 18°C
Dew Point: 14°C
Humidity: 78%
Barometer: 1013.2 hPa
Clouds: Mostly cloudy
Visibility: 16 km
Cloud details: Few Clouds 244 m
Mostly cloudy 4572 m
Mostly cloudy 6096 m
2024/07/13 17:53 KOAK 131753Z 32007KT 10SM FEW008 BKN150 BKN200 18/14 A2992 RMK AO2 SLP132 T01830139 10183 20144 50007
KSQL - San Carlos Airpo, California, USA
Distance from station: NW 34km
Updated: 13/07/2024 10:47
Mostly cloudy
Mostly cloudy
 Wind from NNW
Wind: NNW 13 km/h
Temperature: 19°C
Dew Point: 13°C
Humidity: 68%
Barometer: 1013.5 hPa
Clouds: Mostly cloudy
Visibility: 16 km
Cloud details: Mostly cloudy 3048 m
2024/07/13 17:47 KSQL 131747Z 34007KT 10SM BKN100 19/13 A2993
 
KSFO - San Francisco, California, USA
Distance from station: NW 49km
Updated: 13/07/2024 10:56
Mostly cloudy
Mostly cloudy
 Wind from N
Wind: N 15 km/h
Temperature: 18°C
Dew Point: 14°C
Humidity: 78%
Barometer: 1013.5 hPa
Clouds: Mostly cloudy
Visibility: 16 km
Cloud details: Few Clouds 244 m
Partly cloudy 5182 m
Mostly cloudy 6096 m
2024/07/13 17:56 KSFO 131756Z 36008KT 10SM FEW008 SCT170 BKN200 18/14 A2993 RMK AO2 SLP134 T01780139 10183 20122 50006
KE16 - San Martin, California, USA
Distance from station: ESE 43km
Updated: 13/07/2024 11:35
Clear
Clear
 Wind from SSE
Wind: SSE 19 km/h
Temperature: 23°C
Dew Point: 13°C
Humidity: 53%
Barometer: 1014.2 hPa
Clouds: Clear
Visibility: 16 km
2024/07/13 18:35 KE16 131835Z AUTO 15010KT 10SM CLR 23/13 A2995 RMK AO2 PWINO PNO
 
KWVI - Watsonville, California, USA
Distance from station: SSE 44km
Updated: 13/07/2024 11:28
Mostly cloudy
Mostly cloudy
 Wind from SSW
Wind: SSW 22 km/h
Temperature: 17°C
Dew Point: 12°C
Humidity: 73%
Barometer: 1015.2 hPa
Clouds: Mostly cloudy
Visibility: 16 km
Cloud details: Mostly cloudy 244 m
2024/07/13 18:28 KWVI 131828Z AUTO 21012KT 10SM BKN008 17/12 A2998 RMK AO2 PRESRR T01670122
KHAF - Half Moon Bay, California, USA
Distance from station: WNW 50km
Updated: 13/07/2024 11:35
Overcast
Overcast
 Wind from S
Wind: S 19 km/h
Temperature: 14°C
Dew Point: 14°C
Humidity: 100%
Barometer: 1014.9 hPa
Clouds: Overcast
Visibility: 14 km
Cloud details: Overcast 152 m
2024/07/13 18:35 KHAF 131835Z AUTO 18010KT 9SM OVC005 14/14 A2997 RMK AO2
 
KHWD - Hayward, California, USA
Distance from station: N 44km
Updated: 13/07/2024 10:54
Clear
Clear
 Wind from NW
Wind: NW 17 km/h
Temperature: 21°C
Dew Point: 13°C
Humidity: 60%
Barometer: 1012.9 hPa
Clouds: Clear
Visibility: 16 km
2024/07/13 17:54 KHWD 131754Z 32009KT 10SM CLR 21/13 A2991 RMK AO2 SLP136 T02060128 10211 20156 50003
KLVK - Livermore, California, USA
Distance from station: NNE 51km
Updated: 13/07/2024 10:53
Clear
Clear
 Wind from SW
Wind: SW 15 km/h
Temperature: 25°C
Dew Point: 14°C
Humidity: 51%
Barometer: 1011.9 hPa
Clouds: Clear
Visibility: 16 km
2024/07/13 17:53 KLVK 131753Z 23008KT 10SM CLR 25/14 A2988 RMK AO2 SLP114 T02500139 10250 20194 50008